createdAt,value
2023-03-19T00:02:02.067Z,2.50
2023-03-19T00:04:32.923Z,2.63
2023-03-19T00:06:59.692Z,3.10
2023-03-19T00:09:27.286Z,3.90
2023-03-19T00:11:53.879Z,3.13
2023-03-19T00:14:20.535Z,3.10
2023-03-19T00:16:47.593Z,3.20
2023-03-19T00:19:14.632Z,3.13
2023-03-19T00:21:41.514Z,3.60
2023-03-19T00:24:08.414Z,4.77
2023-03-19T00:26:35.839Z,4.20
2023-03-19T00:29:03.697Z,4.00
2023-03-19T00:31:30.832Z,4.30
2023-03-19T00:33:58.643Z,4.93
2023-03-19T00:36:27.080Z,4.27
2023-03-19T00:38:53.966Z,3.90
2023-03-19T00:41:21.817Z,4.70
2023-03-19T00:43:54.039Z,4.47
2023-03-19T00:46:20.988Z,3.70
2023-03-19T00:48:50.944Z,4.03
2023-03-19T00:51:17.714Z,3.63
2023-03-19T00:53:44.672Z,3.27
2023-03-19T00:56:13.219Z,3.93
2023-03-19T00:58:41.037Z,4.10
2023-03-19T01:01:09.483Z,4.13
2023-03-19T01:03:36.731Z,3.60
2023-03-19T01:06:06.577Z,4.17
2023-03-19T01:08:33.569Z,3.90
2023-03-19T01:11:15.151Z,3.97
2023-03-19T01:13:42.228Z,3.80
2023-03-19T01:16:10.253Z,3.63
2023-03-19T01:18:37.385Z,3.90
2023-03-19T01:21:05.518Z,2.77
2023-03-19T01:23:33.904Z,4.00
2023-03-19T01:26:00.871Z,3.93
2023-03-19T01:28:28.602Z,4.50
2023-03-19T01:30:59.968Z,3.93
2023-03-19T01:33:47.552Z,3.93
2023-03-19T01:36:22.299Z,3.60
2023-03-19T01:39:03.428Z,4.60
2023-03-19T01:41:30.211Z,4.07
2023-03-19T01:44:22.056Z,3.20
2023-03-19T01:47:00.958Z,3.77
2023-03-19T01:49:55.260Z,2.97
2023-03-19T01:52:24.147Z,3.40
2023-03-19T01:55:09.223Z,3.80
2023-03-19T01:58:07.628Z,3.60
2023-03-19T02:01:00.558Z,5.47
2023-03-19T02:03:27.493Z,3.67
2023-03-19T02:06:02.871Z,3.73
2023-03-19T02:08:30.794Z,3.30
2023-03-19T02:11:00.117Z,3.63
2023-03-19T02:13:27.693Z,3.83
2023-03-19T02:15:55.238Z,3.70
2023-03-19T02:18:23.626Z,3.67
2023-03-19T02:21:11.689Z,3.27
2023-03-19T02:23:50.987Z,3.20
2023-03-19T02:26:23.480Z,3.30
2023-03-19T02:28:53.027Z,3.77
2023-03-19T02:31:25.508Z,3.67
2023-03-19T02:34:04.110Z,4.03
2023-03-19T02:36:42.571Z,3.40
2023-03-19T02:39:18.810Z,3.27
2023-03-19T02:41:46.903Z,3.80
2023-03-19T02:44:13.746Z,3.87
2023-03-19T02:46:40.392Z,3.30
2023-03-19T02:49:07.006Z,3.30
2023-03-19T02:51:33.750Z,3.80
2023-03-19T02:54:00.790Z,4.03
2023-03-19T02:56:27.561Z,4.20
2023-03-19T02:58:54.254Z,3.87
2023-03-19T03:01:21.265Z,3.90
2023-03-19T03:03:47.930Z,3.63
2023-03-19T03:06:14.587Z,3.80
2023-03-19T03:08:41.263Z,3.70
2023-03-19T03:11:08.226Z,3.20
2023-03-19T03:13:35.736Z,3.63
2023-03-19T03:16:02.594Z,4.50
2023-03-19T03:18:29.529Z,3.90
2023-03-19T03:20:56.637Z,3.67
2023-03-19T03:23:23.643Z,3.70
2023-03-19T03:25:51.992Z,3.93
2023-03-19T03:28:19.069Z,3.90
2023-03-19T03:30:46.903Z,4.43
2023-03-19T03:33:13.840Z,3.93
2023-03-19T03:35:41.129Z,3.67
2023-03-19T03:38:07.775Z,4.53
2023-03-19T03:40:34.852Z,4.30
2023-03-19T03:43:02.334Z,3.80
2023-03-19T03:45:30.741Z,3.57
2023-03-19T03:47:57.441Z,4.40
2023-03-19T03:50:24.122Z,3.07
2023-03-19T03:52:53.362Z,2.87
2023-03-19T03:55:20.213Z,3.80
2023-03-19T03:57:46.809Z,3.50
2023-03-19T04:00:14.177Z,2.83
2023-03-19T04:02:40.898Z,3.17
2023-03-19T04:05:10.920Z,3.50
2023-03-19T04:07:38.367Z,2.90
2023-03-19T04:10:06.073Z,2.90
2023-03-19T04:12:33.211Z,3.43
2023-03-19T04:14:59.923Z,4.10
2023-03-19T04:17:26.660Z,3.27
2023-03-19T04:19:53.254Z,3.23
2023-03-19T04:22:20.580Z,3.00
2023-03-19T04:24:47.179Z,2.80
2023-03-19T04:27:14.547Z,3.33
2023-03-19T04:29:41.255Z,3.30
2023-03-19T04:32:08.561Z,3.07
2023-03-19T04:34:35.823Z,2.93
2023-03-19T04:37:03.146Z,3.13
2023-03-19T04:39:31.748Z,3.53
2023-03-19T04:41:58.571Z,3.20
2023-03-19T04:44:30.906Z,2.87
2023-03-19T04:46:59.970Z,3.23
2023-03-19T04:49:27.307Z,2.80
2023-03-19T04:51:56.407Z,2.90
2023-03-19T04:54:24.321Z,3.43
2023-03-19T04:56:51.735Z,3.00
2023-03-19T04:59:21.378Z,3.10
2023-03-19T05:01:49.682Z,3.20
2023-03-19T05:04:20.703Z,2.57
2023-03-19T05:06:48.013Z,3.37
2023-03-19T05:09:14.604Z,3.23
2023-03-19T05:11:42.850Z,3.13
2023-03-19T05:14:14.809Z,2.97
2023-03-19T05:17:00.516Z,2.77
2023-03-19T05:19:34.835Z,2.57
2023-03-19T05:22:02.723Z,2.77
2023-03-19T05:24:29.650Z,2.90
2023-03-19T05:26:57.965Z,3.73
2023-03-19T05:29:51.683Z,3.10
2023-03-19T05:32:31.158Z,3.07
2023-03-19T05:35:01.161Z,3.07
2023-03-19T05:37:28.750Z,2.30
2023-03-19T05:39:57.711Z,2.70
2023-03-19T05:42:25.260Z,3.00
2023-03-19T05:44:52.213Z,3.20
2023-03-19T05:47:25.675Z,3.30
2023-03-19T05:49:55.119Z,3.10
2023-03-19T05:52:22.533Z,2.57
2023-03-19T05:54:50.535Z,2.73
2023-03-19T05:57:40.446Z,2.60
2023-03-19T06:00:10.837Z,2.40
2023-03-19T06:02:38.259Z,2.40
2023-03-19T06:05:23.767Z,2.10
2023-03-19T06:07:53.450Z,2.20
2023-03-19T06:10:27.597Z,2.73
2023-03-19T06:12:56.752Z,2.80
2023-03-19T06:15:42.853Z,2.50
2023-03-19T06:18:36.478Z,2.47
2023-03-19T06:21:08.219Z,2.07
2023-03-19T06:23:35.908Z,2.03
2023-03-19T06:26:05.790Z,2.20
2023-03-19T06:28:37.125Z,2.03
2023-03-19T06:31:04.577Z,2.00
2023-03-19T06:33:50.639Z,1.63
2023-03-19T06:36:17.822Z,1.60
2023-03-19T06:38:44.609Z,1.97
2023-03-19T06:41:11.378Z,1.90
2023-03-19T06:43:41.166Z,1.93
2023-03-19T06:46:11.262Z,1.73
2023-03-19T06:48:38.960Z,1.67
2023-03-19T06:51:06.315Z,1.57
2023-03-19T06:53:33.508Z,1.63
2023-03-19T06:56:00.962Z,1.77
2023-03-19T06:58:27.603Z,1.60
2023-03-19T07:00:54.707Z,2.40
2023-03-19T07:03:22.993Z,1.50
2023-03-19T07:05:52.826Z,1.70
2023-03-19T07:08:19.535Z,1.83
2023-03-19T07:10:46.170Z,1.77
2023-03-19T07:13:12.877Z,1.87
2023-03-19T07:15:39.576Z,2.10
2023-03-19T07:18:06.528Z,1.60
2023-03-19T07:20:33.395Z,1.67
2023-03-19T07:23:00.393Z,1.50
2023-03-19T07:25:27.296Z,1.50
2023-03-19T07:27:56.026Z,1.70
2023-03-19T07:30:23.293Z,1.90
2023-03-19T07:32:49.996Z,2.07
2023-03-19T07:35:16.689Z,1.80
2023-03-19T07:37:43.322Z,1.60
2023-03-19T07:40:10.831Z,1.77
2023-03-19T07:42:38.286Z,1.47
2023-03-19T07:45:06.300Z,2.17
2023-03-19T07:47:33.538Z,1.37
2023-03-19T07:50:01.018Z,1.40
2023-03-19T07:52:27.824Z,1.90
2023-03-19T07:54:54.649Z,1.57
2023-03-19T07:57:21.693Z,1.73
2023-03-19T07:59:48.392Z,1.40
2023-03-19T08:02:15.070Z,2.00
2023-03-19T08:04:41.871Z,1.80
2023-03-19T08:07:12.471Z,2.37
2023-03-19T08:09:39.879Z,1.63
2023-03-19T08:12:07.123Z,1.80
2023-03-19T08:14:33.938Z,1.87
2023-03-19T08:17:00.666Z,2.07
2023-03-19T08:19:27.336Z,1.90
2023-03-19T08:21:54.006Z,1.63
2023-03-19T08:24:20.758Z,1.80
2023-03-19T08:26:47.663Z,1.80
2023-03-19T08:29:14.334Z,1.93
2023-03-19T08:31:41.171Z,2.00
2023-03-19T08:34:10.292Z,2.00
2023-03-19T08:36:37.545Z,2.10
2023-03-19T08:39:04.508Z,1.90
2023-03-19T08:41:31.464Z,2.13
2023-03-19T08:43:58.097Z,2.10
2023-03-19T08:46:27.386Z,1.90
2023-03-19T08:48:54.785Z,1.90
2023-03-19T08:51:21.951Z,2.10
2023-03-19T08:53:48.684Z,2.40
2023-03-19T08:56:15.351Z,2.13
2023-03-19T08:58:42.635Z,2.20
2023-03-19T09:01:12.510Z,2.80
2023-03-19T09:03:40.653Z,3.17
2023-03-19T09:06:10.294Z,2.67
2023-03-19T09:08:37.743Z,3.03
2023-03-19T09:11:05.606Z,3.20
2023-03-19T09:13:32.901Z,2.90
2023-03-19T09:15:59.676Z,2.73
2023-03-19T09:18:26.557Z,2.67
2023-03-19T09:20:54.027Z,3.00
2023-03-19T09:23:21.651Z,2.77
2023-03-19T09:25:49.047Z,3.43
2023-03-19T09:28:15.942Z,3.10
2023-03-19T09:30:43.234Z,3.37
2023-03-19T09:33:09.896Z,3.27
2023-03-19T09:35:38.515Z,3.30
2023-03-19T09:38:05.867Z,4.03
2023-03-19T09:40:47.824Z,3.23
2023-03-19T09:43:38.882Z,3.30
2023-03-19T09:46:13.285Z,2.90
2023-03-19T09:49:12.462Z,3.23
2023-03-19T09:51:48.278Z,4.03
2023-03-19T09:54:27.965Z,3.30
2023-03-19T09:56:54.792Z,2.30
2023-03-19T09:59:25.931Z,2.70
2023-03-19T10:02:23.937Z,2.50
2023-03-19T10:04:58.457Z,2.40
2023-03-19T10:07:39.968Z,2.47
2023-03-19T10:10:36.536Z,2.10
2023-03-19T10:13:16.030Z,2.30
2023-03-19T10:15:44.498Z,2.10
2023-03-19T10:18:31.150Z,2.60
2023-03-19T10:21:05.908Z,2.80
2023-03-19T10:24:02.070Z,2.73
2023-03-19T10:26:31.433Z,2.37
2023-03-19T10:29:06.905Z,2.20
2023-03-19T10:32:13.846Z,2.33
2023-03-19T10:34:53.737Z,2.37
2023-03-19T10:37:28.638Z,3.07
2023-03-19T10:40:01.678Z,3.23
2023-03-19T10:42:53.519Z,2.20
2023-03-19T10:45:38.416Z,2.50
2023-03-19T10:48:06.061Z,2.63
2023-03-19T10:50:41.987Z,2.60
2023-03-19T10:53:14.364Z,2.63
2023-03-19T10:55:57.605Z,2.37
2023-03-19T10:58:27.423Z,2.47
2023-03-19T11:01:08.097Z,2.43
2023-03-19T11:03:49.182Z,2.27
2023-03-19T11:06:31.128Z,3.07
2023-03-19T11:09:19.556Z,2.67
2023-03-19T11:11:53.248Z,2.73
2023-03-19T11:14:24.518Z,2.77
2023-03-19T11:17:04.458Z,2.43
2023-03-19T11:19:38.875Z,2.97
2023-03-19T11:22:20.738Z,2.90
2023-03-19T11:25:02.261Z,3.30
2023-03-19T11:27:35.066Z,2.67
2023-03-19T11:30:04.772Z,3.43
2023-03-19T11:32:59.440Z,3.10
2023-03-19T11:35:50.275Z,3.03
2023-03-19T11:38:43.390Z,3.20
2023-03-19T11:41:26.988Z,2.90
2023-03-19T11:44:14.575Z,2.40
2023-03-19T11:46:55.752Z,2.73
2023-03-19T11:50:00.274Z,2.87
2023-03-19T11:52:32.713Z,2.70
2023-03-19T11:55:17.706Z,2.73
2023-03-19T11:58:23.391Z,3.40
2023-03-19T12:00:52.783Z,2.60
2023-03-19T12:03:37.861Z,3.73
2023-03-19T12:06:18.001Z,3.10
2023-03-19T12:09:02.635Z,3.20
2023-03-19T12:11:52.285Z,2.93
2023-03-19T12:14:19.249Z,2.40
2023-03-19T12:17:21.627Z,2.53
2023-03-19T12:20:13.391Z,2.43
2023-03-19T12:22:56.735Z,2.43
2023-03-19T12:25:34.620Z,2.43
2023-03-19T12:28:18.013Z,2.60
2023-03-19T12:30:49.200Z,2.70
2023-03-19T12:33:57.838Z,2.97
2023-03-19T12:36:28.859Z,2.73
2023-03-19T12:39:01.979Z,2.80
2023-03-19T12:41:29.939Z,2.10
2023-03-19T12:44:44.059Z,2.60
2023-03-19T12:47:18.844Z,2.43
2023-03-19T12:50:02.702Z,2.80
2023-03-19T12:52:39.146Z,1.37
2023-03-19T12:55:39.489Z,0.60
2023-03-19T12:58:31.134Z,1.30
2023-03-19T13:01:29.062Z,2.40
2023-03-19T13:04:07.660Z,1.93
2023-03-19T13:06:47.768Z,1.60
2023-03-19T13:09:42.548Z,1.70
2023-03-19T13:12:24.594Z,7.20
2023-03-19T13:14:54.007Z,11.20
2023-03-19T13:17:42.144Z,2.50
2023-03-19T13:20:32.897Z,14.63
2023-03-19T13:23:03.099Z,10.20
2023-03-19T13:25:44.382Z,3.17
2023-03-19T13:28:12.859Z,7.63
2023-03-19T13:30:40.385Z,19.67
2023-03-19T13:33:17.372Z,5.77
2023-03-19T13:35:46.744Z,25.60
2023-03-19T13:38:34.669Z,8.43
2023-03-19T13:41:02.302Z,2.33
2023-03-19T13:43:29.329Z,5.07
2023-03-19T13:46:25.463Z,1.73
2023-03-19T13:48:53.520Z,1.37
2023-03-19T13:51:20.405Z,1.70
2023-03-19T13:54:22.933Z,1.10
2023-03-19T13:57:00.903Z,3.03
2023-03-19T13:59:30.065Z,2.60
2023-03-19T14:01:58.159Z,2.73
2023-03-19T14:04:32.105Z,1.53
2023-03-19T14:07:11.517Z,2.07
2023-03-19T14:09:48.473Z,2.20
2023-03-19T14:12:18.232Z,1.33
2023-03-19T14:14:55.895Z,3.47
2023-03-19T14:17:34.275Z,1.63
2023-03-19T14:20:26.687Z,1.10
2023-03-19T14:23:08.938Z,1.17
2023-03-19T14:25:54.539Z,1.20
2023-03-19T14:28:34.041Z,1.17
2023-03-19T14:31:02.803Z,1.10
2023-03-19T14:33:37.428Z,1.10
2023-03-19T14:36:05.640Z,7.37
2023-03-19T14:38:38.462Z,1.80
2023-03-19T14:41:07.622Z,1.20
2023-03-19T14:43:57.407Z,2.40
2023-03-19T14:46:58.207Z,4.17
2023-03-19T14:49:54.193Z,1.63
2023-03-19T14:52:30.678Z,1.50
2023-03-19T14:55:12.889Z,1.23
2023-03-19T14:57:39.498Z,1.23
2023-03-19T15:00:13.092Z,1.53
2023-03-19T15:02:50.112Z,1.80
2023-03-19T15:05:33.094Z,1.40
2023-03-19T15:08:04.640Z,2.20
2023-03-19T15:10:44.562Z,7.97
2023-03-19T15:13:37.127Z,3.70
2023-03-19T15:16:18.843Z,2.90
2023-03-19T15:18:45.670Z,5.20
2023-03-19T15:21:12.835Z,4.27
2023-03-19T15:23:41.415Z,5.17
2023-03-19T15:26:11.341Z,3.73
2023-03-19T15:28:50.298Z,3.40
2023-03-19T15:31:31.654Z,3.70
2023-03-19T15:34:00.019Z,2.73
2023-03-19T15:36:33.145Z,1.90
2023-03-19T15:39:02.381Z,1.90
2023-03-19T15:41:32.169Z,1.53
2023-03-19T15:44:01.114Z,2.03
2023-03-19T15:46:33.196Z,2.60
2023-03-19T15:49:10.902Z,2.17
2023-03-19T15:51:38.118Z,3.20
2023-03-19T15:54:06.160Z,2.77
2023-03-19T15:56:32.808Z,5.67
2023-03-19T15:59:00.170Z,5.47
2023-03-19T16:01:27.849Z,8.53
2023-03-19T16:04:06.836Z,5.03
2023-03-19T16:06:39.265Z,6.10
2023-03-19T16:09:25.887Z,5.20
2023-03-19T16:11:53.849Z,6.63
2023-03-19T16:14:42.024Z,4.67
2023-03-19T16:17:14.093Z,5.17
2023-03-19T16:19:56.347Z,4.93
2023-03-19T16:22:28.293Z,4.73
2023-03-19T16:24:55.880Z,5.60
2023-03-19T16:27:42.924Z,6.40
2023-03-19T16:30:24.013Z,5.33
2023-03-19T16:33:04.601Z,5.47
2023-03-19T16:35:36.544Z,5.23
2023-03-19T16:38:12.857Z,5.20
2023-03-19T16:40:47.284Z,5.77
2023-03-19T16:43:23.399Z,7.43
2023-03-19T16:45:52.181Z,8.50
2023-03-19T16:48:19.340Z,7.00
2023-03-19T16:50:47.358Z,8.60
2023-03-19T16:53:21.985Z,5.97
2023-03-19T16:55:49.090Z,3.60
2023-03-19T16:58:18.821Z,4.53
2023-03-19T17:00:46.706Z,4.60
2023-03-19T17:03:18.181Z,4.70
2023-03-19T17:05:46.753Z,5.10
2023-03-19T17:08:13.698Z,4.83
2023-03-19T17:10:47.406Z,5.77
2023-03-19T17:13:28.088Z,5.90
2023-03-19T17:15:57.586Z,5.50
2023-03-19T17:18:29.927Z,6.60
2023-03-19T17:21:04.083Z,5.70
2023-03-19T17:23:31.291Z,6.00
2023-03-19T17:25:58.558Z,5.37
2023-03-19T17:28:25.285Z,7.17
2023-03-19T17:30:52.378Z,5.77
2023-03-19T17:33:28.030Z,5.80
2023-03-19T17:35:56.846Z,4.57
2023-03-19T17:38:32.452Z,8.47
2023-03-19T17:40:59.095Z,7.43
2023-03-19T17:43:25.780Z,6.53
2023-03-19T17:45:54.451Z,5.00
2023-03-19T17:48:24.585Z,5.93
2023-03-19T17:50:51.707Z,5.47
2023-03-19T17:53:18.627Z,6.33
2023-03-19T17:55:46.588Z,6.60
2023-03-19T17:58:18.562Z,7.67
2023-03-19T18:00:46.988Z,8.87
2023-03-19T18:03:16.222Z,6.40
2023-03-19T18:05:43.357Z,8.37
2023-03-19T18:08:14.816Z,11.57
2023-03-19T18:10:41.990Z,13.50
2023-03-19T18:13:09.509Z,10.00
2023-03-19T18:15:37.783Z,8.60
2023-03-19T18:18:07.081Z,10.07
2023-03-19T18:20:38.914Z,10.80
2023-03-19T18:23:06.354Z,12.10
2023-03-19T18:25:35.461Z,8.97
2023-03-19T18:28:05.751Z,8.80
2023-03-19T18:30:34.524Z,8.50
2023-03-19T18:33:05.275Z,9.50
2023-03-19T18:35:36.409Z,10.30
2023-03-19T18:38:03.632Z,8.30
2023-03-19T18:40:32.833Z,8.10
2023-03-19T18:42:59.657Z,8.50
2023-03-19T18:45:30.781Z,8.60
2023-03-19T18:47:57.948Z,9.13
2023-03-19T18:50:29.109Z,9.07
2023-03-19T18:52:56.856Z,9.40
2023-03-19T18:55:28.155Z,10.17
2023-03-19T18:57:58.411Z,9.63
2023-03-19T19:00:29.586Z,9.47
2023-03-19T19:02:57.748Z,8.40
2023-03-19T19:05:27.565Z,9.40
2023-03-19T19:07:59.836Z,9.30
2023-03-19T19:10:31.815Z,8.83
2023-03-19T19:12:59.207Z,8.57
2023-03-19T19:15:33.459Z,10.03
2023-03-19T19:18:00.715Z,11.80
2023-03-19T19:20:29.056Z,12.00
2023-03-19T19:22:56.196Z,13.57
2023-03-19T19:25:25.896Z,14.63
2023-03-19T19:28:06.087Z,13.07
2023-03-19T19:30:33.366Z,12.10
2023-03-19T19:33:00.305Z,12.40
2023-03-19T19:35:28.243Z,12.40
2023-03-19T19:37:55.463Z,12.20
2023-03-19T19:40:29.029Z,12.70
2023-03-19T19:42:56.102Z,12.30
2023-03-19T19:45:28.388Z,13.33
2023-03-19T19:47:56.423Z,12.30
2023-03-19T19:50:25.203Z,11.27
2023-03-19T19:52:53.927Z,11.20
2023-03-19T19:55:21.130Z,11.70
2023-03-19T19:57:48.016Z,12.20
2023-03-19T20:00:26.955Z,8.57
2023-03-19T20:02:54.621Z,9.13
2023-03-19T20:05:26.945Z,9.00
2023-03-19T20:07:56.245Z,10.33
2023-03-19T20:10:25.800Z,10.50
2023-03-19T20:12:55.454Z,9.40
2023-03-19T20:15:34.886Z,9.77
2023-03-19T20:18:04.009Z,11.03
2023-03-19T20:20:32.897Z,9.97
2023-03-19T20:23:01.973Z,10.00
2023-03-19T20:25:32.582Z,11.27
2023-03-19T20:28:01.571Z,10.10
2023-03-19T20:30:34.774Z,10.27
2023-03-19T20:33:01.870Z,11.23
2023-03-19T20:35:31.133Z,11.83
2023-03-19T20:37:59.010Z,11.70
2023-03-19T20:40:36.849Z,11.13
2023-03-19T20:43:05.747Z,10.97
2023-03-19T20:45:37.600Z,10.70
2023-03-19T20:48:13.028Z,11.43
2023-03-19T20:50:39.785Z,11.17
2023-03-19T20:53:06.549Z,12.30
2023-03-19T20:55:36.124Z,12.03
2023-03-19T20:58:11.438Z,12.53
2023-03-19T21:00:38.104Z,12.07
2023-03-19T21:03:04.917Z,12.17
2023-03-19T21:05:40.667Z,12.20
2023-03-19T21:08:19.432Z,14.80
2023-03-19T21:10:48.591Z,17.00
2023-03-19T21:13:17.898Z,19.70
2023-03-19T21:15:46.099Z,19.93
2023-03-19T21:18:13.566Z,21.97
2023-03-19T21:20:42.731Z,21.63
2023-03-19T21:23:31.750Z,20.83
2023-03-19T21:26:00.190Z,19.20
2023-03-19T21:28:33.622Z,21.90
2023-03-19T21:31:00.657Z,20.93
2023-03-19T21:33:32.704Z,20.40
2023-03-19T21:36:01.796Z,21.27
2023-03-19T21:38:29.079Z,23.93
2023-03-19T21:40:59.832Z,21.60
2023-03-19T21:43:34.774Z,22.57
2023-03-19T21:46:13.997Z,21.77
2023-03-19T21:48:48.562Z,23.07
2023-03-19T21:51:16.460Z,22.10
2023-03-19T21:53:45.486Z,25.17
2023-03-19T21:56:24.466Z,24.50
2023-03-19T21:58:54.271Z,25.13
2023-03-19T22:01:24.053Z,25.47
2023-03-19T22:03:52.127Z,26.37
2023-03-19T22:06:19.015Z,27.33
2023-03-19T22:08:48.052Z,28.57
2023-03-19T22:11:24.567Z,26.90
2023-03-19T22:13:52.148Z,27.40
2023-03-19T22:16:22.925Z,28.47
2023-03-19T22:18:50.606Z,28.80
2023-03-19T22:21:19.737Z,30.07
2023-03-19T22:23:47.466Z,28.40
2023-03-19T22:26:31.198Z,32.47
2023-03-19T22:29:00.964Z,30.17
2023-03-19T22:31:27.928Z,29.70
2023-03-19T22:33:55.019Z,29.77
2023-03-19T22:36:21.818Z,31.83
2023-03-19T22:38:49.244Z,32.60
2023-03-19T22:41:34.618Z,31.23
2023-03-19T22:44:05.518Z,33.60
2023-03-19T22:46:32.625Z,35.13
2023-03-19T22:48:59.255Z,32.10
2023-03-19T22:51:27.901Z,33.33
2023-03-19T22:53:55.078Z,33.00
2023-03-19T22:56:22.145Z,30.50
2023-03-19T22:58:49.242Z,33.90
2023-03-19T23:01:22.332Z,32.90
2023-03-19T23:03:50.372Z,31.40
2023-03-19T23:06:29.305Z,33.10
2023-03-19T23:08:56.697Z,32.40
2023-03-19T23:11:24.165Z,34.07
2023-03-19T23:13:50.840Z,32.37
2023-03-19T23:16:22.064Z,33.67
2023-03-19T23:18:49.633Z,33.70
2023-03-19T23:21:17.674Z,35.50
2023-03-19T23:23:45.294Z,30.83
2023-03-19T23:26:25.887Z,34.10
2023-03-19T23:28:53.641Z,33.03
2023-03-19T23:31:20.652Z,33.90
2023-03-19T23:33:47.985Z,30.77
2023-03-19T23:36:14.840Z,25.67
2023-03-19T23:38:41.442Z,25.27
2023-03-19T23:41:17.552Z,21.90
2023-03-19T23:43:44.253Z,20.20
2023-03-19T23:46:11.118Z,19.97
2023-03-19T23:48:40.396Z,15.60
2023-03-19T23:51:09.400Z,17.60
2023-03-19T23:53:37.469Z,16.33
2023-03-19T23:56:11.758Z,15.60
2023-03-19T23:58:42.939Z,14.80
